sensor_id;sensor_type;location;lat;lon;timestamp;temperature;humidity
54898;DHT22;40800;52.704;6.398;2023-09-18T00:01:47;18.20;99.90
54898;DHT22;40800;52.704;6.398;2023-09-18T00:04:13;18.10;99.90
54898;DHT22;40800;52.704;6.398;2023-09-18T00:06:39;18.10;99.90
54898;DHT22;40800;52.704;6.398;2023-09-18T00:09:05;18.30;99.90
54898;DHT22;40800;52.704;6.398;2023-09-18T00:11:32;18.30;99.90
54898;DHT22;40800;52.704;6.398;2023-09-18T00:13:58;18.60;99.90
54898;DHT22;40800;52.704;6.398;2023-09-18T00:16:23;18.60;99.90
54898;DHT22;40800;52.704;6.398;2023-09-18T00:18:52;18.40;99.90
54898;DHT22;40800;52.704;6.398;2023-09-18T00:21:18;18.30;99.90
54898;DHT22;40800;52.704;6.398;2023-09-18T00:23:43;18.50;99.90
54898;DHT22;40800;52.704;6.398;2023-09-18T00:26:09;18.70;99.90
54898;DHT22;40800;52.704;6.398;2023-09-18T00:28:34;18.70;99.90
54898;DHT22;40800;52.704;6.398;2023-09-18T00:31:00;18.70;99.90
54898;DHT22;40800;52.704;6.398;2023-09-18T00:33:26;18.10;99.90
54898;DHT22;40800;52.704;6.398;2023-09-18T00:35:52;18.80;99.90
54898;DHT22;40800;52.704;6.398;2023-09-18T00:38:18;18.40;99.90
54898;DHT22;40800;52.704;6.398;2023-09-18T00:40:44;18.10;99.90
54898;DHT22;40800;52.704;6.398;2023-09-18T00:43:10;18.10;99.90
54898;DHT22;40800;52.704;6.398;2023-09-18T00:45:41;18.70;99.90
54898;DHT22;40800;52.704;6.398;2023-09-18T00:48:08;18.60;99.90
54898;DHT22;40800;52.704;6.398;2023-09-18T00:50:33;18.20;99.90
54898;DHT22;40800;52.704;6.398;2023-09-18T00:53:02;19.00;99.90
54898;DHT22;40800;52.704;6.398;2023-09-18T00:55:30;19.00;99.90
54898;DHT22;40800;52.704;6.398;2023-09-18T00:57:56;19.10;99.90
54898;DHT22;40800;52.704;6.398;2023-09-18T01:00:22;19.00;99.90
54898;DHT22;40800;52.704;6.398;2023-09-18T01:02:48;19.20;99.90
54898;DHT22;40800;52.704;6.398;2023-09-18T01:05:14;19.10;99.90
54898;DHT22;40800;52.704;6.398;2023-09-18T01:07:42;18.60;99.90
54898;DHT22;40800;52.704;6.398;2023-09-18T01:10:08;18.60;99.90
54898;DHT22;40800;52.704;6.398;2023-09-18T01:12:41;19.00;99.90
54898;DHT22;40800;52.704;6.398;2023-09-18T01:15:22;18.60;99.90
54898;DHT22;40800;52.704;6.398;2023-09-18T01:17:51;18.60;99.90
54898;DHT22;40800;52.704;6.398;2023-09-18T01:20:17;19.10;99.90
54898;DHT22;40800;52.704;6.398;2023-09-18T01:22:43;18.50;99.90
54898;DHT22;40800;52.704;6.398;2023-09-18T01:25:09;18.60;99.90
54898;DHT22;40800;52.704;6.398;2023-09-18T01:27:34;19.30;99.90
54898;DHT22;40800;52.704;6.398;2023-09-18T01:30:00;19.20;99.90
54898;DHT22;40800;52.704;6.398;2023-09-18T01:32:29;19.20;99.90
54898;DHT22;40800;52.704;6.398;2023-09-18T01:34:57;18.90;99.90
54898;DHT22;40800;52.704;6.398;2023-09-18T01:37:24;18.80;99.90
54898;DHT22;40800;52.704;6.398;2023-09-18T01:39:51;18.60;99.90
54898;DHT22;40800;52.704;6.398;2023-09-18T01:42:17;18.40;99.90
54898;DHT22;40800;52.704;6.398;2023-09-18T01:44:44;18.90;99.90
54898;DHT22;40800;52.704;6.398;2023-09-18T01:47:15;18.50;99.90
54898;DHT22;40800;52.704;6.398;2023-09-18T01:49:42;18.60;99.90
54898;DHT22;40800;52.704;6.398;2023-09-18T01:52:08;19.20;99.90
54898;DHT22;40800;52.704;6.398;2023-09-18T01:54:35;18.80;99.90
54898;DHT22;40800;52.704;6.398;2023-09-18T01:57:01;19.20;99.90
54898;DHT22;40800;52.704;6.398;2023-09-18T01:59:27;18.70;99.90
54898;DHT22;40800;52.704;6.398;2023-09-18T02:01:53;19.20;99.90
54898;DHT22;40800;52.704;6.398;2023-09-18T02:04:20;18.90;99.90
54898;DHT22;40800;52.704;6.398;2023-09-18T02:06:47;18.60;99.90
54898;DHT22;40800;52.704;6.398;2023-09-18T02:09:13;18.50;99.90
54898;DHT22;40800;52.704;6.398;2023-09-18T02:11:40;18.60;99.90
54898;DHT22;40800;52.704;6.398;2023-09-18T02:14:06;18.70;99.90
54898;DHT22;40800;52.704;6.398;2023-09-18T02:16:33;18.60;99.90
54898;DHT22;40800;52.704;6.398;2023-09-18T02:18:59;19.10;99.90
54898;DHT22;40800;52.704;6.398;2023-09-18T02:21:25;18.50;99.90
54898;DHT22;40800;52.704;6.398;2023-09-18T02:23:52;18.60;99.90
54898;DHT22;40800;52.704;6.398;2023-09-18T02:26:18;18.90;99.90
54898;DHT22;40800;52.704;6.398;2023-09-18T02:28:44;18.80;99.90
54898;DHT22;40800;52.704;6.398;2023-09-18T02:31:09;18.40;99.90
54898;DHT22;40800;52.704;6.398;2023-09-18T02:33:36;19.10;99.90
54898;DHT22;40800;52.704;6.398;2023-09-18T02:36:02;19.20;99.90
54898;DHT22;40800;52.704;6.398;2023-09-18T02:38:28;18.50;99.90
54898;DHT22;40800;52.704;6.398;2023-09-18T02:40:53;18.60;99.90
54898;DHT22;40800;52.704;6.398;2023-09-18T02:43:20;19.30;99.90
54898;DHT22;40800;52.704;6.398;2023-09-18T02:45:46;19.10;99.90
54898;DHT22;40800;52.704;6.398;2023-09-18T02:48:12;18.70;99.90
54898;DHT22;40800;52.704;6.398;2023-09-18T02:50:37;19.40;99.90
54898;DHT22;40800;52.704;6.398;2023-09-18T02:53:06;18.80;99.90
54898;DHT22;40800;52.704;6.398;2023-09-18T02:55:32;18.70;99.90
54898;DHT22;40800;52.704;6.398;2023-09-18T02:57:57;18.70;99.90
54898;DHT22;40800;52.704;6.398;2023-09-18T03:00:23;19.00;99.90
54898;DHT22;40800;52.704;6.398;2023-09-18T03:02:48;19.40;99.90
54898;DHT22;40800;52.704;6.398;2023-09-18T03:05:14;18.70;99.90
54898;DHT22;40800;52.704;6.398;2023-09-18T03:07:39;19.40;99.90
54898;DHT22;40800;52.704;6.398;2023-09-18T03:10:05;18.70;99.90
54898;DHT22;40800;52.704;6.398;2023-09-18T03:12:31;18.90;99.90
54898;DHT22;40800;52.704;6.398;2023-09-18T03:14:57;19.40;99.90
54898;DHT22;40800;52.704;6.398;2023-09-18T03:17:22;18.80;99.90
54898;DHT22;40800;52.704;6.398;2023-09-18T03:19:49;18.90;99.90
54898;DHT22;40800;52.704;6.398;2023-09-18T03:22:15;19.60;99.90
54898;DHT22;40800;52.704;6.398;2023-09-18T03:24:40;19.50;99.90
54898;DHT22;40800;52.704;6.398;2023-09-18T03:27:06;19.70;99.90
54898;DHT22;40800;52.704;6.398;2023-09-18T03:29:31;19.30;99.90
54898;DHT22;40800;52.704;6.398;2023-09-18T03:31:57;19.30;99.90
54898;DHT22;40800;52.704;6.398;2023-09-18T03:34:24;18.90;99.90
54898;DHT22;40800;52.704;6.398;2023-09-18T03:36:52;19.20;99.90
54898;DHT22;40800;52.704;6.398;2023-09-18T03:39:18;19.10;99.90
54898;DHT22;40800;52.704;6.398;2023-09-18T03:41:44;18.90;99.90
54898;DHT22;40800;52.704;6.398;2023-09-18T03:44:10;19.00;99.90
54898;DHT22;40800;52.704;6.398;2023-09-18T03:46:36;19.60;99.90
54898;DHT22;40800;52.704;6.398;2023-09-18T03:49:02;19.60;99.90
54898;DHT22;40800;52.704;6.398;2023-09-18T03:51:28;18.90;99.90
54898;DHT22;40800;52.704;6.398;2023-09-18T03:53:55;19.00;99.90
54898;DHT22;40800;52.704;6.398;2023-09-18T03:56:21;19.20;99.90
54898;DHT22;40800;52.704;6.398;2023-09-18T03:58:47;19.30;99.90
54898;DHT22;40800;52.704;6.398;2023-09-18T04:01:15;19.20;99.90
54898;DHT22;40800;52.704;6.398;2023-09-18T04:03:41;19.50;99.90
54898;DHT22;40800;52.704;6.398;2023-09-18T04:06:07;19.50;99.90
54898;DHT22;40800;52.704;6.398;2023-09-18T04:08:32;19.50;99.90
54898;DHT22;40800;52.704;6.398;2023-09-18T04:10:58;19.40;99.90
54898;DHT22;40800;52.704;6.398;2023-09-18T04:13:24;19.50;99.90
54898;DHT22;40800;52.704;6.398;2023-09-18T04:15:50;19.30;99.90
54898;DHT22;40800;52.704;6.398;2023-09-18T04:18:16;19.00;99.90
54898;DHT22;40800;52.704;6.398;2023-09-18T04:20:41;19.00;99.90
54898;DHT22;40800;52.704;6.398;2023-09-18T04:23:20;19.60;99.90
54898;DHT22;40800;52.704;6.398;2023-09-18T04:25:46;19.30;99.90
54898;DHT22;40800;52.704;6.398;2023-09-18T04:28:13;19.70;99.90
54898;DHT22;40800;52.704;6.398;2023-09-18T04:30:39;19.20;99.90
54898;DHT22;40800;52.704;6.398;2023-09-18T04:33:05;19.30;99.90
54898;DHT22;40800;52.704;6.398;2023-09-18T04:35:32;19.70;99.90
54898;DHT22;40800;52.704;6.398;2023-09-18T04:37:58;19.60;99.90
54898;DHT22;40800;52.704;6.398;2023-09-18T04:40:24;19.70;99.90
54898;DHT22;40800;52.704;6.398;2023-09-18T04:42:50;19.30;99.90
54898;DHT22;40800;52.704;6.398;2023-09-18T04:45:16;19.10;99.90
54898;DHT22;40800;52.704;6.398;2023-09-18T04:47:41;19.10;99.90
54898;DHT22;40800;52.704;6.398;2023-09-18T04:50:07;19.20;99.90
54898;DHT22;40800;52.704;6.398;2023-09-18T04:52:35;19.70;99.90
54898;DHT22;40800;52.704;6.398;2023-09-18T04:55:01;19.90;99.90
54898;DHT22;40800;52.704;6.398;2023-09-18T04:57:26;19.90;99.90
54898;DHT22;40800;52.704;6.398;2023-09-18T04:59:52;19.30;99.90
54898;DHT22;40800;52.704;6.398;2023-09-18T05:02:17;19.30;99.90
54898;DHT22;40800;52.704;6.398;2023-09-18T05:04:43;19.70;99.90
54898;DHT22;40800;52.704;6.398;2023-09-18T05:07:09;19.80;99.90
54898;DHT22;40800;52.704;6.398;2023-09-18T05:09:34;19.20;99.90
54898;DHT22;40800;52.704;6.398;2023-09-18T05:12:00;19.80;99.90
54898;DHT22;40800;52.704;6.398;2023-09-18T05:14:26;19.90;99.90
54898;DHT22;40800;52.704;6.398;2023-09-18T05:16:51;19.40;99.90
54898;DHT22;40800;52.704;6.398;2023-09-18T05:19:17;19.40;99.90
54898;DHT22;40800;52.704;6.398;2023-09-18T05:21:43;19.40;99.90
54898;DHT22;40800;52.704;6.398;2023-09-18T05:24:09;19.50;99.90
54898;DHT22;40800;52.704;6.398;2023-09-18T05:26:35;19.60;99.90
54898;DHT22;40800;52.704;6.398;2023-09-18T05:29:00;19.70;99.90
54898;DHT22;40800;52.704;6.398;2023-09-18T05:31:26;19.60;99.90
54898;DHT22;40800;52.704;6.398;2023-09-18T05:33:52;19.70;99.90
54898;DHT22;40800;52.704;6.398;2023-09-18T05:36:17;19.30;99.90
54898;DHT22;40800;52.704;6.398;2023-09-18T05:38:43;19.80;99.90
54898;DHT22;40800;52.704;6.398;2023-09-18T05:41:08;19.50;99.90
54898;DHT22;40800;52.704;6.398;2023-09-18T05:43:35;19.30;99.90
54898;DHT22;40800;52.704;6.398;2023-09-18T05:46:01;19.20;99.90
54898;DHT22;40800;52.704;6.398;2023-09-18T05:48:27;19.80;99.90
54898;DHT22;40800;52.704;6.398;2023-09-18T05:50:53;19.80;99.90
54898;DHT22;40800;52.704;6.398;2023-09-18T05:53:20;19.80;99.90
54898;DHT22;40800;52.704;6.398;2023-09-18T05:55:46;19.20;99.90
54898;DHT22;40800;52.704;6.398;2023-09-18T05:58:12;19.70;99.90
54898;DHT22;40800;52.704;6.398;2023-09-18T06:00:38;19.10;99.90
54898;DHT22;40800;52.704;6.398;2023-09-18T06:03:03;19.20;99.90
54898;DHT22;40800;52.704;6.398;2023-09-18T06:05:31;19.20;99.90
54898;DHT22;40800;52.704;6.398;2023-09-18T06:07:57;19.50;99.90
54898;DHT22;40800;52.704;6.398;2023-09-18T06:10:23;19.30;99.90
54898;DHT22;40800;52.704;6.398;2023-09-18T06:12:49;19.20;99.90
54898;DHT22;40800;52.704;6.398;2023-09-18T06:15:15;19.10;99.90
54898;DHT22;40800;52.704;6.398;2023-09-18T06:17:42;19.20;99.90
54898;DHT22;40800;52.704;6.398;2023-09-18T06:20:09;19.70;99.90
54898;DHT22;40800;52.704;6.398;2023-09-18T06:22:37;19.40;99.90
54898;DHT22;40800;52.704;6.398;2023-09-18T06:25:03;19.70;99.90
54898;DHT22;40800;52.704;6.398;2023-09-18T06:27:29;19.80;99.90
54898;DHT22;40800;52.704;6.398;2023-09-18T06:29:54;19.70;99.90
54898;DHT22;40800;52.704;6.398;2023-09-18T06:32:20;19.70;99.90
54898;DHT22;40800;52.704;6.398;2023-09-18T06:34:47;19.60;99.90
54898;DHT22;40800;52.704;6.398;2023-09-18T06:37:12;19.70;99.90
54898;DHT22;40800;52.704;6.398;2023-09-18T06:39:38;19.20;99.90
54898;DHT22;40800;52.704;6.398;2023-09-18T06:42:04;19.50;99.90
54898;DHT22;40800;52.704;6.398;2023-09-18T06:44:30;19.50;99.90
54898;DHT22;40800;52.704;6.398;2023-09-18T06:46:55;19.50;99.90
54898;DHT22;40800;52.704;6.398;2023-09-18T06:49:21;19.50;99.90
54898;DHT22;40800;52.704;6.398;2023-09-18T06:51:47;19.60;99.90
54898;DHT22;40800;52.704;6.398;2023-09-18T06:54:12;20.10;99.90
54898;DHT22;40800;52.704;6.398;2023-09-18T06:56:38;19.90;99.90
54898;DHT22;40800;52.704;6.398;2023-09-18T06:59:03;19.20;99.90
54898;DHT22;40800;52.704;6.398;2023-09-18T07:01:29;20.10;99.90
54898;DHT22;40800;52.704;6.398;2023-09-18T07:03:57;19.20;99.90
54898;DHT22;40800;52.704;6.398;2023-09-18T07:06:24;19.40;99.90
54898;DHT22;40800;52.704;6.398;2023-09-18T07:08:50;20.20;99.90
54898;DHT22;40800;52.704;6.398;2023-09-18T07:11:16;20.30;99.90
54898;DHT22;40800;52.704;6.398;2023-09-18T07:13:42;19.40;99.90
54898;DHT22;40800;52.704;6.398;2023-09-18T07:16:09;19.60;99.90
54898;DHT22;40800;52.704;6.398;2023-09-18T07:18:35;19.40;99.90
54898;DHT22;40800;52.704;6.398;2023-09-18T07:21:00;19.60;99.90
54898;DHT22;40800;52.704;6.398;2023-09-18T07:23:26;19.70;99.90
54898;DHT22;40800;52.704;6.398;2023-09-18T07:25:51;20.10;99.90
54898;DHT22;40800;52.704;6.398;2023-09-18T07:28:17;19.60;99.90
54898;DHT22;40800;52.704;6.398;2023-09-18T07:30:44;20.10;99.90
54898;DHT22;40800;52.704;6.398;2023-09-18T07:33:11;20.40;99.90
54898;DHT22;40800;52.704;6.398;2023-09-18T07:35:37;19.40;99.90
54898;DHT22;40800;52.704;6.398;2023-09-18T07:38:03;19.50;99.90
54898;DHT22;40800;52.704;6.398;2023-09-18T07:40:29;20.20;99.90
54898;DHT22;40800;52.704;6.398;2023-09-18T07:42:55;20.10;99.90
54898;DHT22;40800;52.704;6.398;2023-09-18T07:45:20;19.70;99.90
54898;DHT22;40800;52.704;6.398;2023-09-18T07:47:46;19.80;99.90
54898;DHT22;40800;52.704;6.398;2023-09-18T07:50:12;20.00;99.90
54898;DHT22;40800;52.704;6.398;2023-09-18T07:52:38;19.80;99.90
54898;DHT22;40800;52.704;6.398;2023-09-18T07:55:04;19.80;99.90
54898;DHT22;40800;52.704;6.398;2023-09-18T07:57:29;19.70;99.90
54898;DHT22;40800;52.704;6.398;2023-09-18T07:59:57;20.30;99.90
54898;DHT22;40800;52.704;6.398;2023-09-18T08:02:23;20.10;99.90
54898;DHT22;40800;52.704;6.398;2023-09-18T08:04:49;20.00;99.90
54898;DHT22;40800;52.704;6.398;2023-09-18T08:07:15;20.30;99.90
54898;DHT22;40800;52.704;6.398;2023-09-18T08:09:41;19.90;99.90
54898;DHT22;40800;52.704;6.398;2023-09-18T08:12:08;20.60;99.90
54898;DHT22;40800;52.704;6.398;2023-09-18T08:14:34;20.40;99.90
54898;DHT22;40800;52.704;6.398;2023-09-18T08:17:03;20.40;99.90
54898;DHT22;40800;52.704;6.398;2023-09-18T08:19:30;20.00;99.90
54898;DHT22;40800;52.704;6.398;2023-09-18T08:21:58;19.90;99.90
54898;DHT22;40800;52.704;6.398;2023-09-18T08:24:25;20.60;99.90
54898;DHT22;40800;52.704;6.398;2023-09-18T08:26:51;20.00;99.90
54898;DHT22;40800;52.704;6.398;2023-09-18T08:29:17;20.10;99.90
54898;DHT22;40800;52.704;6.398;2023-09-18T08:31:43;20.50;99.90
54898;DHT22;40800;52.704;6.398;2023-09-18T08:34:09;20.30;99.90
54898;DHT22;40800;52.704;6.398;2023-09-18T08:36:34;20.30;99.90
54898;DHT22;40800;52.704;6.398;2023-09-18T08:39:00;20.90;99.90
54898;DHT22;40800;52.704;6.398;2023-09-18T08:41:28;20.30;99.90
54898;DHT22;40800;52.704;6.398;2023-09-18T08:44:03;21.10;99.90
54898;DHT22;40800;52.704;6.398;2023-09-18T08:46:32;20.30;99.90
54898;DHT22;40800;52.704;6.398;2023-09-18T08:49:00;20.60;99.90
54898;DHT22;40800;52.704;6.398;2023-09-18T08:51:26;20.30;99.90
54898;DHT22;40800;52.704;6.398;2023-09-18T08:53:53;20.30;99.90
54898;DHT22;40800;52.704;6.398;2023-09-18T08:56:21;21.10;99.90
54898;DHT22;40800;52.704;6.398;2023-09-18T08:58:47;20.30;99.90
54898;DHT22;40800;52.704;6.398;2023-09-18T09:01:13;21.00;99.90
54898;DHT22;40800;52.704;6.398;2023-09-18T09:03:40;21.10;99.90
54898;DHT22;40800;52.704;6.398;2023-09-18T09:06:06;20.90;99.90
54898;DHT22;40800;52.704;6.398;2023-09-18T09:08:32;20.70;99.90
54898;DHT22;40800;52.704;6.398;2023-09-18T09:10:59;20.80;99.90
54898;DHT22;40800;52.704;6.398;2023-09-18T09:13:25;21.30;99.90
54898;DHT22;40800;52.704;6.398;2023-09-18T09:15:55;20.50;99.90
54898;DHT22;40800;52.704;6.398;2023-09-18T09:18:24;20.50;99.90
54898;DHT22;40800;52.704;6.398;2023-09-18T09:21:01;21.30;99.90
54898;DHT22;40800;52.704;6.398;2023-09-18T09:23:28;21.30;99.90
54898;DHT22;40800;52.704;6.398;2023-09-18T09:26:16;20.70;99.90
54898;DHT22;40800;52.704;6.398;2023-09-18T09:28:41;21.30;99.90
54898;DHT22;40800;52.704;6.398;2023-09-18T09:31:09;20.90;99.90
54898;DHT22;40800;52.704;6.398;2023-09-18T09:33:36;21.10;99.90
54898;DHT22;40800;52.704;6.398;2023-09-18T09:36:05;21.50;99.90
54898;DHT22;40800;52.704;6.398;2023-09-18T09:38:31;21.50;99.90
54898;DHT22;40800;52.704;6.398;2023-09-18T09:41:00;21.30;99.90
54898;DHT22;40800;52.704;6.398;2023-09-18T09:43:31;21.60;99.90
54898;DHT22;40800;52.704;6.398;2023-09-18T09:46:01;21.60;99.90
54898;DHT22;40800;52.704;6.398;2023-09-18T09:48:27;21.20;99.90
54898;DHT22;40800;52.704;6.398;2023-09-18T09:50:57;21.10;99.90
54898;DHT22;40800;52.704;6.398;2023-09-18T09:53:47;21.00;99.90
54898;DHT22;40800;52.704;6.398;2023-09-18T09:56:13;21.40;99.90
54898;DHT22;40800;52.704;6.398;2023-09-18T09:58:40;21.60;99.90
54898;DHT22;40800;52.704;6.398;2023-09-18T10:01:12;21.30;99.90
54898;DHT22;40800;52.704;6.398;2023-09-18T10:03:44;21.70;99.90
54898;DHT22;40800;52.704;6.398;2023-09-18T10:06:11;21.30;99.90
54898;DHT22;40800;52.704;6.398;2023-09-18T10:08:40;21.50;99.90
54898;DHT22;40800;52.704;6.398;2023-09-18T10:11:08;21.60;99.90
54898;DHT22;40800;52.704;6.398;2023-09-18T10:13:40;21.50;99.90
54898;DHT22;40800;52.704;6.398;2023-09-18T10:16:07;21.70;99.90
54898;DHT22;40800;52.704;6.398;2023-09-18T10:18:50;21.70;99.90
54898;DHT22;40800;52.704;6.398;2023-09-18T10:24:17;21.80;99.90
54898;DHT22;40800;52.704;6.398;2023-09-18T10:29:19;22.20;99.90
54898;DHT22;40800;52.704;6.398;2023-09-18T10:31:45;22.40;99.90
54898;DHT22;40800;52.704;6.398;2023-09-18T10:34:13;22.50;99.90
54898;DHT22;40800;52.704;6.398;2023-09-18T10:36:42;22.70;99.90
54898;DHT22;40800;52.704;6.398;2023-09-18T10:39:10;22.90;99.90
54898;DHT22;40800;52.704;6.398;2023-09-18T10:41:38;23.10;99.90
54898;DHT22;40800;52.704;6.398;2023-09-18T10:44:05;23.20;99.90
54898;DHT22;40800;52.704;6.398;2023-09-18T10:46:31;22.90;99.90
54898;DHT22;40800;52.704;6.398;2023-09-18T10:48:59;22.60;99.90
54898;DHT22;40800;52.704;6.398;2023-09-18T10:51:26;22.50;99.90
54898;DHT22;40800;52.704;6.398;2023-09-18T10:53:52;22.30;99.90
54898;DHT22;40800;52.704;6.398;2023-09-18T10:56:20;22.30;99.90
54898;DHT22;40800;52.704;6.398;2023-09-18T10:58:45;22.30;99.90
54898;DHT22;40800;52.704;6.398;2023-09-18T11:01:12;22.20;99.90
54898;DHT22;40800;52.704;6.398;2023-09-18T11:03:38;22.20;99.90
54898;DHT22;40800;52.704;6.398;2023-09-18T11:06:09;22.20;99.90
54898;DHT22;40800;52.704;6.398;2023-09-18T11:08:47;22.10;99.90
54898;DHT22;40800;52.704;6.398;2023-09-18T11:11:13;22.20;99.90
54898;DHT22;40800;52.704;6.398;2023-09-18T11:13:50;22.40;99.90
54898;DHT22;40800;52.704;6.398;2023-09-18T11:18:51;22.90;99.90
54898;DHT22;40800;52.704;6.398;2023-09-18T11:21:30;22.80;99.90
54898;DHT22;40800;52.704;6.398;2023-09-18T11:24:03;22.70;99.90
54898;DHT22;40800;52.704;6.398;2023-09-18T11:26:34;22.60;99.90
54898;DHT22;40800;52.704;6.398;2023-09-18T11:29:08;22.60;99.90
54898;DHT22;40800;52.704;6.398;2023-09-18T11:31:49;22.70;99.90
54898;DHT22;40800;52.704;6.398;2023-09-18T11:34:24;22.50;99.90
54898;DHT22;40800;52.704;6.398;2023-09-18T11:36:52;22.40;99.90
54898;DHT22;40800;52.704;6.398;2023-09-18T11:42:17;22.10;99.90
54898;DHT22;40800;52.704;6.398;2023-09-18T11:44:44;21.90;99.90
54898;DHT22;40800;52.704;6.398;2023-09-18T11:47:15;21.80;99.90
54898;DHT22;40800;52.704;6.398;2023-09-18T11:49:52;21.60;99.90
54898;DHT22;40800;52.704;6.398;2023-09-18T11:52:28;21.40;99.90
54898;DHT22;40800;52.704;6.398;2023-09-18T11:54:57;21.40;99.90
54898;DHT22;40800;52.704;6.398;2023-09-18T11:57:23;21.50;99.90
54898;DHT22;40800;52.704;6.398;2023-09-18T11:59:49;21.80;99.90
54898;DHT22;40800;52.704;6.398;2023-09-18T12:02:29;21.90;99.90
54898;DHT22;40800;52.704;6.398;2023-09-18T12:05:14;22.20;99.90
54898;DHT22;40800;52.704;6.398;2023-09-18T12:07:41;22.20;99.90
54898;DHT22;40800;52.704;6.398;2023-09-18T12:10:12;22.50;99.90
54898;DHT22;40800;52.704;6.398;2023-09-18T12:12:38;22.70;99.90
54898;DHT22;40800;52.704;6.398;2023-09-18T12:15:04;22.90;99.90
54898;DHT22;40800;52.704;6.398;2023-09-18T12:17:30;23.10;99.90
54898;DHT22;40800;52.704;6.398;2023-09-18T12:19:55;23.20;99.90
54898;DHT22;40800;52.704;6.398;2023-09-18T12:22:28;23.30;99.90
54898;DHT22;40800;52.704;6.398;2023-09-18T12:25:14;23.40;99.90
54898;DHT22;40800;52.704;6.398;2023-09-18T12:27:43;23.60;99.90
54898;DHT22;40800;52.704;6.398;2023-09-18T12:30:09;23.50;99.90
54898;DHT22;40800;52.704;6.398;2023-09-18T12:32:38;23.70;99.90
54898;DHT22;40800;52.704;6.398;2023-09-18T12:35:06;24.00;99.90
54898;DHT22;40800;52.704;6.398;2023-09-18T12:37:39;24.00;99.90
54898;DHT22;40800;52.704;6.398;2023-09-18T12:40:06;23.90;99.90
54898;DHT22;40800;52.704;6.398;2023-09-18T12:42:37;24.00;99.90
54898;DHT22;40800;52.704;6.398;2023-09-18T12:45:09;24.00;99.90
54898;DHT22;40800;52.704;6.398;2023-09-18T12:47:35;24.10;99.90
54898;DHT22;40800;52.704;6.398;2023-09-18T12:50:05;24.20;99.90
54898;DHT22;40800;52.704;6.398;2023-09-18T12:52:32;24.20;99.90
54898;DHT22;40800;52.704;6.398;2023-09-18T12:54:58;24.30;99.90
54898;DHT22;40800;52.704;6.398;2023-09-18T12:57:25;24.30;99.90
54898;DHT22;40800;52.704;6.398;2023-09-18T12:59:51;24.30;99.90
54898;DHT22;40800;52.704;6.398;2023-09-18T13:02:19;24.30;99.90
54898;DHT22;40800;52.704;6.398;2023-09-18T13:04:52;24.40;99.90
54898;DHT22;40800;52.704;6.398;2023-09-18T13:07:18;24.50;99.90
54898;DHT22;40800;52.704;6.398;2023-09-18T13:10:01;24.50;99.90
54898;DHT22;40800;52.704;6.398;2023-09-18T13:12:42;24.50;99.90
54898;DHT22;40800;52.704;6.398;2023-09-18T13:15:07;24.60;99.90
54898;DHT22;40800;52.704;6.398;2023-09-18T13:17:45;24.60;99.90
54898;DHT22;40800;52.704;6.398;2023-09-18T13:20:14;24.70;99.90
54898;DHT22;40800;52.704;6.398;2023-09-18T13:22:41;24.70;99.90
54898;DHT22;40800;52.704;6.398;2023-09-18T13:25:08;24.70;99.90
54898;DHT22;40800;52.704;6.398;2023-09-18T13:27:33;24.80;99.90
54898;DHT22;40800;52.704;6.398;2023-09-18T13:29:59;24.80;99.90
54898;DHT22;40800;52.704;6.398;2023-09-18T13:32:33;24.60;99.90
54898;DHT22;40800;52.704;6.398;2023-09-18T13:34:59;24.70;99.90
54898;DHT22;40800;52.704;6.398;2023-09-18T13:37:25;24.60;99.90
54898;DHT22;40800;52.704;6.398;2023-09-18T13:39:52;24.80;99.90
54898;DHT22;40800;52.704;6.398;2023-09-18T13:42:17;24.90;99.90
54898;DHT22;40800;52.704;6.398;2023-09-18T13:44:43;25.10;99.90
54898;DHT22;40800;52.704;6.398;2023-09-18T13:47:09;25.10;99.90
54898;DHT22;40800;52.704;6.398;2023-09-18T13:49:34;25.00;99.90
54898;DHT22;40800;52.704;6.398;2023-09-18T13:52:00;24.80;99.90
54898;DHT22;40800;52.704;6.398;2023-09-18T13:54:26;24.50;99.90
54898;DHT22;40800;52.704;6.398;2023-09-18T13:56:51;24.20;99.90
54898;DHT22;40800;52.704;6.398;2023-09-18T13:59:17;24.10;99.90
54898;DHT22;40800;52.704;6.398;2023-09-18T14:01:43;24.00;99.90
54898;DHT22;40800;52.704;6.398;2023-09-18T14:04:08;24.00;99.90
54898;DHT22;40800;52.704;6.398;2023-09-18T14:06:34;24.20;99.90
54898;DHT22;40800;52.704;6.398;2023-09-18T14:08:59;24.40;99.90
54898;DHT22;40800;52.704;6.398;2023-09-18T14:11:25;25.00;99.90
54898;DHT22;40800;52.704;6.398;2023-09-18T14:13:51;25.00;99.90
54898;DHT22;40800;52.704;6.398;2023-09-18T14:16:17;25.00;99.90
54898;DHT22;40800;52.704;6.398;2023-09-18T14:18:43;24.90;99.90
54898;DHT22;40800;52.704;6.398;2023-09-18T14:21:08;25.00;99.90
54898;DHT22;40800;52.704;6.398;2023-09-18T14:23:34;25.00;99.90
54898;DHT22;40800;52.704;6.398;2023-09-18T14:26:00;25.00;99.90
54898;DHT22;40800;52.704;6.398;2023-09-18T14:28:26;25.00;99.90
54898;DHT22;40800;52.704;6.398;2023-09-18T14:30:51;24.90;99.90
54898;DHT22;40800;52.704;6.398;2023-09-18T14:33:17;24.90;99.90
54898;DHT22;40800;52.704;6.398;2023-09-18T14:35:43;24.90;99.90
54898;DHT22;40800;52.704;6.398;2023-09-18T14:38:08;25.00;99.90
54898;DHT22;40800;52.704;6.398;2023-09-18T14:40:35;25.00;99.90
54898;DHT22;40800;52.704;6.398;2023-09-18T14:43:00;25.10;99.90
54898;DHT22;40800;52.704;6.398;2023-09-18T14:45:26;25.00;99.90
54898;DHT22;40800;52.704;6.398;2023-09-18T14:47:52;25.00;99.90
54898;DHT22;40800;52.704;6.398;2023-09-18T14:50:17;25.00;99.90
54898;DHT22;40800;52.704;6.398;2023-09-18T14:52:43;25.00;99.90
54898;DHT22;40800;52.704;6.398;2023-09-18T14:55:09;25.00;99.90
54898;DHT22;40800;52.704;6.398;2023-09-18T14:57:34;25.00;99.90
54898;DHT22;40800;52.704;6.398;2023-09-18T15:00:00;25.20;99.90
54898;DHT22;40800;52.704;6.398;2023-09-18T15:02:25;25.40;99.90
54898;DHT22;40800;52.704;6.398;2023-09-18T15:04:55;25.60;99.90
54898;DHT22;40800;52.704;6.398;2023-09-18T15:07:20;25.70;99.90
54898;DHT22;40800;52.704;6.398;2023-09-18T15:09:46;25.70;99.90
54898;DHT22;40800;52.704;6.398;2023-09-18T15:12:11;25.80;99.90
54898;DHT22;40800;52.704;6.398;2023-09-18T15:14:37;26.20;99.90
54898;DHT22;40800;52.704;6.398;2023-09-18T15:17:03;26.10;99.90
54898;DHT22;40800;52.704;6.398;2023-09-18T15:19:29;26.10;99.90
54898;DHT22;40800;52.704;6.398;2023-09-18T15:21:55;26.00;99.90
54898;DHT22;40800;52.704;6.398;2023-09-18T15:24:23;25.80;99.90
54898;DHT22;40800;52.704;6.398;2023-09-18T15:26:48;25.70;99.90
54898;DHT22;40800;52.704;6.398;2023-09-18T15:29:14;25.60;99.90
54898;DHT22;40800;52.704;6.398;2023-09-18T15:31:41;25.50;99.90
54898;DHT22;40800;52.704;6.398;2023-09-18T15:34:07;25.50;99.90
54898;DHT22;40800;52.704;6.398;2023-09-18T15:36:33;25.50;99.90
54898;DHT22;40800;52.704;6.398;2023-09-18T15:38:59;25.60;99.90
54898;DHT22;40800;52.704;6.398;2023-09-18T15:41:25;25.50;99.90